Архив погоды в Глазове

Метеограмма Глазов
Среда, 17 Октября
Время местн. Темп Ветер Видим Явления Облачность нижн/средн/верх Атм. давл. Влжн Точка росы ВНГО R Сост. почвы Tg s
Напр Скр Прв ур.ст ур.м изм
04:00 +7.3° З 5 6 4 км - ясно 742 757 -1.4 94% +6.4° более 2.5 км - - - -
01:00 +8.2° Ю-З 4 6 4 км дымка облачно 743 759 -2.7 95% +7.4° 300 м - - - -
Вторник, 16 Октября
Время местн. Темп Ветер Видим Явления Облачность нижн/средн/верх Атм. давл. Влжн Точка росы ВНГО R Сост. почвы Tg s
Напр Скр Прв ур.ст ур.м изм
22:00 +8° Ю-З 3 4 2 км дымка {морось} облачно 746 762 -1.4 99% +7.8° 300 м - - - -
19:00 +8.1° З 2 3 4 км слабая непрерывная морось облачно 747 763 -0.2 96% +7.5° 300 м 0 - - -
16:00 +8.3° З 3 6 4 км дымка {морось} облачно 748 763 +0.4 96% +7.7° 600 м - - - -
13:00 +8.1° З,С-З 4 7 4 км дымка {морось} облачно 747 763 +0.2 96% +7.5° 600 м - - - -
10:00 +6.9° З 2 4 2 км умеренная непрерывная морось облачно 747 763 0 99% +6.7° 300 м - - - -
07:00 +4.5° Ю-З 3 4 2 км умеренная непрерывная морось облачно 747 763 -0.4 97% +4° 300 м 2 Влажная (без луж) - -
04:00 +3.2° Ю 1 3 2 км умеренная непрерывная морось {дождь} облачно 747 763 -0.2 97% +2.7° 600 м - - - -
01:00 +2.4° Ю 2 3 4 км слабый непрерывный дождь облачно 748 764 -1.4 96% +1.9° 600 м - - - -
Понедельник, 15 Октября
Время местн. Темп Ветер Видим Явления Облачность нижн/средн/верх Атм. давл. Влжн Точка росы ВНГО R Сост. почвы Tg s
Напр Скр Прв ур.ст ур.м изм
22:00 +1.6° Ю,Ю-З 3 5 4 км слабый непрерывный дождь {морось} облачно 749 765 -1.2 94% +0.8° 600 м - - - -
19:00 +1.4° Ю,Ю-З 3 5 4 км слабая непрерывная морось облачно 750 766 -0.5 92% +0.3° 600 м 0.1 - - -
16:00 +2.7° Ю,Ю-З 4 6 50 км небо без изменений {снег} облачно 751 767 -0.3 71% -2.1° 1 км - - - -
13:00 +2.6° Ю-З 3 4 10 км слабый снег с перерывами облачно 751 767 -0.8 68% -2.6° 1.5 км - - - -
10:00 +0.6° Ю 1 2 50 км - облачно 752 768 +0.3 78% -2.7° 1.5 км - - - -
07:00 -1.1° штиль 0 1 50 км - облачно 752 768 -0.4 88% -2.9° 1 км 0 Влажная (без луж) - -
04:00 -1.1° Ю,Ю-В 1 2 4 км - облачно 752 768 -0.1 90% -2.6° - - - - -
01:00 -0.6° Ю-З 1 1 4 км - облачно 752 768 +0.4 86% -2.7° 1 км - - - -
Воскресенье, 14 Октября
Время местн. Темп Ветер Видим Явления Облачность нижн/средн/верх Атм. давл. Влжн Точка росы ВНГО R Сост. почвы Tg s
Напр Скр Прв ур.ст ур.м изм
22:00 +0.2° штиль 0 1 4 км - облачно с прояснениями 752 768 -0.3 74% -3.8° 1 км - - - -
19:00 +1.5° штиль 0 1 4 км - облачно 752 768 +0.6 65% -4.3° 1 км 0 - - -
16:00 +2.6° З,С-З 1 4 50 км - преимущественно облачно 751 767 -0.1 60% -4.4° 1 км - - - -
13:00 +2° С 2 5 50 км - облачно с прояснениями 751 767 +0.3 67% -3.4° 1 км - - - -
10:00 +1.3° С-З 2 5 50 км - облачно 751 767 +0.5 76% -2.5° 1 км - - - -
07:00 +0.1° З,С-З 2 4 50 км - облачно 751 767 +0.3 82% -2.6° 1 км 0 Замерзшая - -
04:00 З,С-З 3 5 4 км - переменная облачность 750 766 0 78% -3.4° - - - - -
01:00 +1.2° З,С-З 2 4 4 км - облачно 750 766 +0.2 68% -4° 1.5 км - - - -